createdAt,value
2023-05-03T00:00:31.932Z,47.50
2023-05-03T00:02:58.469Z,47.30
2023-05-03T00:05:25.106Z,47.40
2023-05-03T00:07:51.599Z,47.20
2023-05-03T00:10:18.103Z,47.30
2023-05-03T00:12:44.588Z,47.40
2023-05-03T00:15:11.085Z,47.40
2023-05-03T00:17:37.601Z,47.20
2023-05-03T00:20:04.502Z,47.30
2023-05-03T00:22:31.262Z,47.20
2023-05-03T00:24:57.753Z,47.10
2023-05-03T00:27:24.251Z,47.20
2023-05-03T00:29:50.705Z,47.10
2023-05-03T00:32:17.177Z,47.20
2023-05-03T00:34:43.655Z,47.30
2023-05-03T00:37:15.003Z,47.00
2023-05-03T00:39:41.471Z,47.30
2023-05-03T00:42:07.958Z,47.20
2023-05-03T00:44:34.409Z,47.00
2023-05-03T00:47:00.977Z,47.10
2023-05-03T00:49:27.514Z,46.90
2023-05-03T00:51:53.993Z,47.60
2023-05-03T00:54:20.487Z,47.10
2023-05-03T00:56:51.502Z,47.00
2023-05-03T00:59:19.213Z,47.20
2023-05-03T01:01:45.697Z,47.00
2023-05-03T01:04:12.220Z,47.20
2023-05-03T01:06:38.817Z,46.90
2023-05-03T01:09:05.312Z,47.20
2023-05-03T01:11:31.801Z,47.10
2023-05-03T01:13:58.292Z,46.90
2023-05-03T01:16:24.844Z,46.70
2023-05-03T01:18:51.324Z,46.70
2023-05-03T01:21:17.818Z,46.60
2023-05-03T01:23:44.299Z,46.80
2023-05-03T01:26:10.793Z,47.20
2023-05-03T01:28:37.281Z,46.70
2023-05-03T01:31:03.759Z,47.30
2023-05-03T01:33:30.355Z,46.50
2023-05-03T01:35:56.840Z,46.90
2023-05-03T01:38:23.299Z,47.10
2023-05-03T01:40:49.760Z,46.60
2023-05-03T01:43:16.265Z,46.90
2023-05-03T01:45:42.757Z,46.70
2023-05-03T01:48:09.321Z,46.60
2023-05-03T01:50:35.850Z,46.60
2023-05-03T01:53:02.359Z,46.50
2023-05-03T01:55:28.828Z,47.40
2023-05-03T01:57:55.302Z,46.60
2023-05-03T02:00:21.784Z,46.30
2023-05-03T02:02:48.364Z,47.00
2023-05-03T02:05:14.910Z,46.30
2023-05-03T02:07:41.354Z,47.00
2023-05-03T02:10:07.820Z,46.90
2023-05-03T02:12:34.296Z,46.70
2023-05-03T02:15:00.755Z,46.40
2023-05-03T02:17:27.252Z,46.90
2023-05-03T02:19:53.738Z,46.50
2023-05-03T02:22:20.244Z,46.10
2023-05-03T02:24:46.703Z,46.40
2023-05-03T02:27:13.174Z,46.20
2023-05-03T02:29:39.660Z,46.40
2023-05-03T02:32:06.147Z,46.40
2023-05-03T02:34:32.631Z,46.40
2023-05-03T02:36:59.137Z,46.30
2023-05-03T02:39:25.654Z,46.60
2023-05-03T02:41:52.108Z,46.00
2023-05-03T02:44:21.064Z,46.30
2023-05-03T02:46:47.605Z,46.50
2023-05-03T02:49:14.103Z,46.10
2023-05-03T02:51:40.581Z,46.70
2023-05-03T02:54:07.063Z,46.40
2023-05-03T02:56:33.572Z,46.30
2023-05-03T02:59:00.026Z,46.90
2023-05-03T03:01:26.544Z,46.40
2023-05-03T03:03:53.111Z,46.20
2023-05-03T03:06:19.703Z,47.20
2023-05-03T03:08:46.229Z,46.60
2023-05-03T03:11:15.116Z,46.10
2023-05-03T03:13:41.589Z,45.90
2023-05-03T03:16:08.107Z,46.20
2023-05-03T03:18:34.581Z,46.60
2023-05-03T03:21:01.067Z,46.10
2023-05-03T03:23:27.541Z,46.00
2023-05-03T03:25:54.076Z,45.90
2023-05-03T03:28:20.573Z,46.00
2023-05-03T03:30:47.059Z,45.90
2023-05-03T03:33:13.627Z,46.10
2023-05-03T03:35:40.173Z,45.70
2023-05-03T03:38:06.664Z,45.80
2023-05-03T03:40:33.136Z,46.00
2023-05-03T03:42:59.638Z,45.70
2023-05-03T03:45:26.126Z,46.00
2023-05-03T03:47:53.681Z,46.20
2023-05-03T03:50:20.383Z,45.60
2023-05-03T03:52:46.862Z,45.60
2023-05-03T03:55:13.347Z,45.90
2023-05-03T03:57:39.828Z,45.80
2023-05-03T04:00:06.507Z,45.80
2023-05-03T04:02:33.229Z,45.40
2023-05-03T04:04:59.846Z,45.40
2023-05-03T04:07:26.323Z,45.50
2023-05-03T04:09:52.810Z,45.50
2023-05-03T04:12:19.293Z,45.40
2023-05-03T04:14:45.753Z,45.40
2023-05-03T04:17:12.249Z,45.40
2023-05-03T04:19:38.827Z,45.10
2023-05-03T04:22:05.340Z,45.30
2023-05-03T04:24:31.821Z,44.80
2023-05-03T04:26:58.300Z,44.90
2023-05-03T04:29:24.786Z,44.90
2023-05-03T04:31:51.260Z,44.60
2023-05-03T04:34:17.740Z,44.60
2023-05-03T04:36:44.227Z,44.50
2023-05-03T04:39:10.705Z,44.80
2023-05-03T04:41:37.194Z,44.70
2023-05-03T04:44:03.731Z,44.70
2023-05-03T04:46:30.289Z,44.50
2023-05-03T04:48:56.852Z,44.60
2023-05-03T04:51:23.312Z,44.50
2023-05-03T04:53:49.783Z,44.40
2023-05-03T04:56:16.238Z,44.30
2023-05-03T04:58:42.706Z,44.40
2023-05-03T05:01:09.217Z,44.10
2023-05-03T05:03:36.129Z,44.10
2023-05-03T05:06:02.638Z,44.00
2023-05-03T05:08:29.124Z,44.20
2023-05-03T05:10:55.586Z,44.40
2023-05-03T05:13:22.052Z,44.30
2023-05-03T05:15:48.512Z,44.30
2023-05-03T05:18:15.034Z,44.20
2023-05-03T05:20:45.308Z,44.40
2023-05-03T05:23:11.777Z,44.20
2023-05-03T05:25:38.234Z,43.90
2023-05-03T05:28:04.711Z,44.20
2023-05-03T05:30:31.206Z,43.90
2023-05-03T05:32:57.866Z,43.90
2023-05-03T05:35:24.411Z,43.80
2023-05-03T05:37:50.901Z,44.20
2023-05-03T05:40:17.392Z,44.10
2023-05-03T05:42:43.894Z,43.70
2023-05-03T05:45:10.374Z,44.10
2023-05-03T05:47:36.880Z,43.90
2023-05-03T05:50:05.959Z,43.80
2023-05-03T05:52:38.696Z,44.40
2023-05-03T05:55:05.161Z,44.00
2023-05-03T05:57:31.644Z,43.80
2023-05-03T05:59:58.106Z,44.80
2023-05-03T06:02:24.706Z,43.70
2023-05-03T06:04:51.322Z,43.90
2023-05-03T06:07:17.874Z,43.70
2023-05-03T06:09:44.381Z,43.80
2023-05-03T06:12:10.876Z,43.90
2023-05-03T06:14:37.371Z,43.90
2023-05-03T06:17:03.963Z,44.00
2023-05-03T06:19:30.595Z,44.00
2023-05-03T06:21:57.102Z,43.90
2023-05-03T06:24:23.582Z,43.90
2023-05-03T06:26:50.066Z,43.90
2023-05-03T06:29:16.533Z,43.90
2023-05-03T06:31:43.044Z,43.90
2023-05-03T06:34:10.481Z,43.90
2023-05-03T06:36:37.063Z,43.90
2023-05-03T06:39:03.548Z,44.00
2023-05-03T06:41:30.023Z,44.00
2023-05-03T06:43:56.500Z,43.80
2023-05-03T06:46:23.029Z,43.90
2023-05-03T06:48:49.593Z,44.00
2023-05-03T06:51:16.099Z,44.00
2023-05-03T06:53:42.571Z,44.00
2023-05-03T06:56:09.037Z,44.00
2023-05-03T06:58:35.518Z,44.00
2023-05-03T07:01:01.997Z,44.00
2023-05-03T07:03:28.532Z,44.00
2023-05-03T07:05:55.178Z,44.00
2023-05-03T07:08:21.636Z,44.00
2023-05-03T07:10:48.120Z,44.00
2023-05-03T07:13:14.591Z,44.00
2023-05-03T07:15:41.073Z,44.00
2023-05-03T07:18:07.694Z,44.00
2023-05-03T07:20:34.275Z,44.10
2023-05-03T07:23:00.751Z,44.00
2023-05-03T07:25:27.242Z,44.30
2023-05-03T07:27:53.741Z,44.10
2023-05-03T07:30:20.216Z,44.10
2023-05-03T07:32:46.773Z,44.00
2023-05-03T07:35:13.281Z,44.00
2023-05-03T07:37:39.739Z,44.00
2023-05-03T07:40:06.433Z,44.00
2023-05-03T07:42:33.011Z,44.00
2023-05-03T07:44:59.501Z,44.00
2023-05-03T07:47:25.998Z,44.00
2023-05-03T07:49:52.545Z,44.20
2023-05-03T07:52:19.044Z,44.10
2023-05-03T07:54:45.511Z,44.10
2023-05-03T07:57:11.996Z,44.00
2023-05-03T07:59:38.563Z,44.00
2023-05-03T08:02:05.159Z,44.00
2023-05-03T08:04:31.873Z,44.10
2023-05-03T08:06:58.467Z,44.00
2023-05-03T08:09:24.936Z,44.00
2023-05-03T08:11:57.556Z,44.20
2023-05-03T08:14:24.053Z,44.10
2023-05-03T08:16:50.521Z,44.10
2023-05-03T08:19:17.025Z,44.10
2023-05-03T08:21:43.478Z,44.20
2023-05-03T08:24:09.957Z,44.10
2023-05-03T08:26:36.438Z,44.10
2023-05-03T08:29:02.956Z,44.20
2023-05-03T08:31:29.472Z,44.20
2023-05-03T08:33:55.986Z,44.20
2023-05-03T08:36:22.465Z,44.10
2023-05-03T08:38:48.962Z,44.20
2023-05-03T08:41:15.454Z,44.10
2023-05-03T08:43:41.955Z,44.20
2023-05-03T08:46:08.491Z,44.20
2023-05-03T08:48:35.011Z,44.40
2023-05-03T08:51:01.478Z,44.40
2023-05-03T08:53:27.963Z,44.30
2023-05-03T08:55:57.527Z,44.30
2023-05-03T08:58:24.019Z,44.20
2023-05-03T09:00:50.485Z,44.20
2023-05-03T09:03:17.106Z,44.20
2023-05-03T09:05:43.667Z,44.20
2023-05-03T09:08:10.158Z,44.10
2023-05-03T09:10:39.599Z,44.20
2023-05-03T09:13:06.106Z,44.30
2023-05-03T09:15:32.579Z,44.40
2023-05-03T09:17:59.084Z,44.20
2023-05-03T09:20:25.571Z,44.20
2023-05-03T09:22:52.063Z,44.20
2023-05-03T09:25:18.525Z,44.20
2023-05-03T09:27:45.010Z,44.30
2023-05-03T09:30:11.516Z,44.20
2023-05-03T09:32:38.043Z,44.40
2023-05-03T09:35:04.760Z,44.40
2023-05-03T09:37:31.485Z,44.30
2023-05-03T09:39:57.951Z,44.30
2023-05-03T09:42:24.429Z,44.40
2023-05-03T09:44:50.903Z,44.40
2023-05-03T09:47:17.369Z,44.40
2023-05-03T09:49:43.867Z,44.30
2023-05-03T09:52:10.353Z,44.10
2023-05-03T09:54:36.913Z,44.00
2023-05-03T09:57:03.408Z,44.10
2023-05-03T09:59:29.873Z,44.10
2023-05-03T10:01:56.374Z,44.10
2023-05-03T10:04:23.016Z,44.20
2023-05-03T10:06:49.619Z,44.20
2023-05-03T10:09:16.146Z,44.30
2023-05-03T10:11:42.608Z,44.30
2023-05-03T10:14:09.108Z,44.30
2023-05-03T10:16:35.564Z,44.40
2023-05-03T10:19:02.064Z,44.40
2023-05-03T10:21:28.538Z,44.40
2023-05-03T10:23:55.026Z,44.40
2023-05-03T10:26:21.489Z,44.50
2023-05-03T10:28:48.056Z,44.50
2023-05-03T10:31:14.542Z,44.50
2023-05-03T10:33:45.486Z,44.30
2023-05-03T10:36:13.345Z,44.50
2023-05-03T10:38:39.827Z,44.50
2023-05-03T10:41:06.293Z,44.50
2023-05-03T10:43:32.804Z,44.50
2023-05-03T10:45:59.341Z,44.50
2023-05-03T10:48:25.845Z,44.50
2023-05-03T10:50:52.385Z,44.50
2023-05-03T10:53:18.880Z,44.60
2023-05-03T10:55:45.466Z,44.60
2023-05-03T10:58:11.968Z,44.60
2023-05-03T11:00:38.472Z,44.60
2023-05-03T11:03:05.010Z,44.60
2023-05-03T11:05:31.520Z,44.70
2023-05-03T11:07:58.011Z,44.60
2023-05-03T11:10:24.518Z,44.60
2023-05-03T11:12:51.157Z,44.70
2023-05-03T11:15:17.640Z,44.70
2023-05-03T11:17:44.144Z,44.70
2023-05-03T11:20:10.679Z,44.70
2023-05-03T11:22:37.152Z,44.70
2023-05-03T11:25:03.939Z,44.70
2023-05-03T11:27:30.646Z,44.80
2023-05-03T11:29:57.161Z,44.80
2023-05-03T11:32:23.737Z,44.70
2023-05-03T11:34:50.288Z,44.80
2023-05-03T11:37:16.751Z,44.90
2023-05-03T11:39:43.247Z,44.90
2023-05-03T11:42:09.725Z,44.90
2023-05-03T11:44:36.194Z,44.90
2023-05-03T11:47:02.816Z,44.90
2023-05-03T11:49:29.596Z,44.80
2023-05-03T11:51:56.117Z,44.80
2023-05-03T11:54:26.843Z,44.80
2023-05-03T11:56:54.030Z,44.80
2023-05-03T11:59:20.584Z,44.90
2023-05-03T12:01:47.088Z,45.00
2023-05-03T12:04:13.702Z,44.90
2023-05-03T12:06:42.453Z,44.90
2023-05-03T12:09:10.084Z,44.90
2023-05-03T12:11:37.415Z,44.90
2023-05-03T12:14:05.964Z,45.00
2023-05-03T12:16:33.600Z,44.90
2023-05-03T12:19:01.940Z,44.90
2023-05-03T12:21:31.448Z,45.00
2023-05-03T12:24:01.306Z,45.00
2023-05-03T12:26:28.279Z,45.00
2023-05-03T12:28:56.702Z,45.00
2023-05-03T12:31:23.807Z,45.00
2023-05-03T12:34:12.345Z,45.00
2023-05-03T12:36:38.035Z,45.10
2023-05-03T12:39:09.379Z,45.00
2023-05-03T12:44:07.778Z,45.10
2023-05-03T12:46:36.732Z,45.10
2023-05-03T12:49:06.843Z,45.10
2023-05-03T12:51:34.544Z,45.20
2023-05-03T12:54:02.081Z,45.20
2023-05-03T12:56:32.299Z,45.20
2023-05-03T12:59:27.058Z,45.10
2023-05-03T13:02:41.591Z,45.30
2023-05-03T13:07:02.253Z,45.20
2023-05-03T13:09:46.145Z,45.20
2023-05-03T13:12:15.649Z,45.20
2023-05-03T13:14:42.247Z,45.20
2023-05-03T13:17:09.592Z,45.20
2023-05-03T13:19:36.080Z,45.10
2023-05-03T13:22:02.577Z,45.20
2023-05-03T13:24:29.059Z,45.20
2023-05-03T13:26:55.563Z,45.30
2023-05-03T13:29:22.032Z,45.30
2023-05-03T13:31:48.555Z,45.30
2023-05-03T13:34:15.092Z,45.30
2023-05-03T13:36:41.588Z,45.30
2023-05-03T13:39:08.064Z,45.30
2023-05-03T13:41:34.573Z,45.40
2023-05-03T13:44:03.643Z,45.30
2023-05-03T13:46:30.238Z,45.40
2023-05-03T13:48:56.849Z,45.40
2023-05-03T13:51:23.379Z,45.30
2023-05-03T13:53:49.845Z,45.40
2023-05-03T13:56:16.324Z,45.50
2023-05-03T13:58:42.786Z,45.40
2023-05-03T14:01:09.290Z,45.50
2023-05-03T14:03:35.906Z,45.50
2023-05-03T14:06:02.544Z,45.50
2023-05-03T14:08:29.054Z,45.50
2023-05-03T14:10:57.658Z,45.60
2023-05-03T14:13:24.211Z,45.60
2023-05-03T14:15:50.750Z,45.60
2023-05-03T14:18:17.319Z,45.60
2023-05-03T14:20:43.862Z,45.70
2023-05-03T14:23:10.368Z,45.60
2023-05-03T14:25:36.850Z,45.60
2023-05-03T14:28:03.340Z,45.70
2023-05-03T14:30:29.816Z,45.60
2023-05-03T14:32:56.376Z,45.60
2023-05-03T14:35:22.891Z,45.70
2023-05-03T14:37:49.413Z,45.70
2023-05-03T14:40:15.940Z,45.80
2023-05-03T14:42:42.415Z,45.70
2023-05-03T14:45:11.740Z,45.70
2023-05-03T14:47:39.263Z,45.70
2023-05-03T14:50:06.051Z,45.70
2023-05-03T14:52:32.894Z,45.80
2023-05-03T14:54:59.352Z,45.80
2023-05-03T14:57:25.879Z,45.80
2023-05-03T14:59:52.384Z,45.80
2023-05-03T15:02:18.930Z,45.80
2023-05-03T15:04:46.552Z,45.80
2023-05-03T15:07:13.101Z,45.80
2023-05-03T15:09:39.572Z,45.80
2023-05-03T15:12:06.060Z,45.80
2023-05-03T15:14:32.534Z,45.90
2023-05-03T15:16:59.019Z,45.90
2023-05-03T15:19:25.533Z,45.80
2023-05-03T15:21:52.007Z,45.80
2023-05-03T15:24:18.516Z,45.80
2023-05-03T15:29:35.333Z,45.90
2023-05-03T15:32:01.813Z,45.90
2023-05-03T15:34:28.295Z,45.80
2023-05-03T15:36:54.768Z,45.90
2023-05-03T15:39:21.251Z,46.00
2023-05-03T15:41:47.715Z,45.90
2023-05-03T15:44:14.213Z,46.00
2023-05-03T15:46:42.690Z,45.90
2023-05-03T15:49:09.484Z,45.90
2023-05-03T15:51:35.955Z,45.90
2023-05-03T15:54:02.436Z,45.90
2023-05-03T15:56:28.908Z,45.90
2023-05-03T15:58:55.382Z,45.90
2023-05-03T16:01:21.895Z,46.00
2023-05-03T16:03:48.411Z,45.90
2023-05-03T16:06:14.896Z,45.90
2023-05-03T16:08:41.368Z,45.90
2023-05-03T16:11:07.853Z,45.90
2023-05-03T16:13:34.335Z,45.90
2023-05-03T16:16:00.876Z,45.80
2023-05-03T16:18:27.363Z,45.80
2023-05-03T16:20:53.847Z,45.70
2023-05-03T16:23:20.317Z,45.70
2023-05-03T16:25:46.794Z,45.50
2023-05-03T16:28:13.271Z,45.50
2023-05-03T16:30:39.771Z,45.40
2023-05-03T16:33:06.257Z,45.40
2023-05-03T16:35:32.755Z,45.30
2023-05-03T16:37:59.238Z,45.30
2023-05-03T16:40:25.722Z,45.30
2023-05-03T16:42:52.195Z,45.30
2023-05-03T16:45:18.658Z,45.40
2023-05-03T16:47:45.147Z,45.40
2023-05-03T16:50:11.650Z,45.50
2023-05-03T16:52:38.118Z,45.40
2023-05-03T16:55:04.620Z,45.50
2023-05-03T16:57:31.086Z,45.50
2023-05-03T16:59:57.580Z,45.50
2023-05-03T17:02:24.117Z,45.50
2023-05-03T17:04:50.685Z,45.50
2023-05-03T17:07:17.145Z,45.50
2023-05-03T17:09:43.630Z,45.40
2023-05-03T17:12:10.142Z,45.40
2023-05-03T17:14:36.623Z,45.40
2023-05-03T17:17:03.186Z,45.50
2023-05-03T17:19:29.718Z,45.50
2023-05-03T17:21:56.199Z,45.40
2023-05-03T17:24:22.669Z,45.50
2023-05-03T17:26:49.159Z,45.50
2023-05-03T17:29:15.636Z,45.50
2023-05-03T17:31:42.187Z,45.50
2023-05-03T17:34:08.754Z,45.50
2023-05-03T17:36:35.243Z,45.50
2023-05-03T17:39:01.705Z,45.60
2023-05-03T17:41:28.214Z,45.50
2023-05-03T17:43:54.698Z,45.50
2023-05-03T17:46:21.254Z,45.50
2023-05-03T17:48:47.777Z,45.50
2023-05-03T17:51:14.254Z,45.50
2023-05-03T17:53:40.737Z,45.50
2023-05-03T17:56:07.230Z,45.50
2023-05-03T17:58:33.729Z,45.60
2023-05-03T18:01:00.211Z,45.60
2023-05-03T18:03:26.766Z,45.60
2023-05-03T18:05:53.273Z,45.60
2023-05-03T18:08:19.763Z,45.70
2023-05-03T18:10:46.252Z,45.60
2023-05-03T18:13:12.913Z,45.70
2023-05-03T18:15:40.851Z,45.60
2023-05-03T18:18:08.150Z,45.70
2023-05-03T18:20:34.671Z,45.60
2023-05-03T18:23:01.175Z,45.70
2023-05-03T18:25:27.652Z,45.70
2023-05-03T18:27:54.158Z,45.70
2023-05-03T18:30:20.646Z,45.70
2023-05-03T18:32:47.147Z,45.80
2023-05-03T18:35:13.694Z,45.80
2023-05-03T18:37:40.185Z,45.70
2023-05-03T18:40:06.914Z,45.80
2023-05-03T18:42:33.567Z,45.80
2023-05-03T18:45:00.021Z,45.80
2023-05-03T18:47:26.551Z,45.90
2023-05-03T18:49:53.238Z,45.90
2023-05-03T18:52:19.773Z,45.80
2023-05-03T18:54:49.006Z,45.90
2023-05-03T18:57:15.497Z,45.90
2023-05-03T18:59:52.343Z,45.90
2023-05-03T19:02:23.547Z,45.90
2023-05-03T19:04:50.070Z,46.00
2023-05-03T19:07:16.604Z,45.90
2023-05-03T19:09:43.118Z,45.90
2023-05-03T19:12:09.601Z,46.00
2023-05-03T19:14:36.093Z,46.00
2023-05-03T19:17:02.637Z,46.00
2023-05-03T19:19:33.919Z,46.00
2023-05-03T19:22:04.148Z,46.00
2023-05-03T19:24:30.619Z,46.00
2023-05-03T19:26:57.085Z,46.00
2023-05-03T19:29:23.550Z,46.00
2023-05-03T19:31:50.031Z,46.00
2023-05-03T19:34:16.535Z,46.10
2023-05-03T19:36:43.028Z,46.10
2023-05-03T19:39:09.572Z,46.10
2023-05-03T19:41:36.032Z,46.10
2023-05-03T19:44:02.531Z,46.10
2023-05-03T19:46:29.180Z,46.20
2023-05-03T19:48:55.693Z,46.20
2023-05-03T19:51:22.158Z,46.00
2023-05-03T19:53:49.174Z,46.10
2023-05-03T19:56:15.718Z,46.00
2023-05-03T19:58:42.196Z,46.10
2023-05-03T20:01:08.677Z,46.20
2023-05-03T20:03:35.288Z,46.20
2023-05-03T20:06:01.893Z,46.20
2023-05-03T20:08:28.373Z,46.20
2023-05-03T20:10:54.865Z,46.20
2023-05-03T20:13:21.367Z,46.20
2023-05-03T20:15:47.906Z,46.20
2023-05-03T20:18:14.401Z,46.20
2023-05-03T20:20:40.894Z,46.20
2023-05-03T20:23:07.377Z,46.20
2023-05-03T20:25:33.856Z,46.20
2023-05-03T20:28:00.312Z,46.20
2023-05-03T20:30:26.858Z,46.20
2023-05-03T20:32:53.505Z,46.20
2023-05-03T20:35:21.996Z,46.20
2023-05-03T20:37:48.474Z,46.20
2023-05-03T20:40:14.952Z,46.20
2023-05-03T20:42:41.430Z,46.20
2023-05-03T20:45:07.908Z,46.20
2023-05-03T20:47:34.379Z,46.10
2023-05-03T20:50:00.883Z,46.20
2023-05-03T20:52:27.413Z,46.20
2023-05-03T20:54:53.873Z,46.10
2023-05-03T20:57:20.336Z,46.20
2023-05-03T20:59:46.822Z,46.20
2023-05-03T21:02:13.365Z,46.20
2023-05-03T21:04:39.880Z,46.20
2023-05-03T21:07:06.389Z,46.20
2023-05-03T21:09:32.873Z,46.20
2023-05-03T21:11:59.369Z,46.10
2023-05-03T21:14:25.839Z,46.20
2023-05-03T21:16:52.351Z,46.10
2023-05-03T21:19:18.834Z,46.20
2023-05-03T21:21:45.309Z,46.20
2023-05-03T21:24:11.784Z,46.10
2023-05-03T21:26:38.270Z,46.10
2023-05-03T21:29:04.765Z,46.20
2023-05-03T21:31:31.293Z,46.00
2023-05-03T21:33:57.792Z,46.10
2023-05-03T21:36:24.262Z,46.10
2023-05-03T21:38:52.705Z,46.00
2023-05-03T21:41:19.518Z,45.80
2023-05-03T21:43:45.986Z,46.00
2023-05-03T21:46:12.505Z,45.90
2023-05-03T21:48:39.044Z,45.80
2023-05-03T21:51:05.522Z,45.90
2023-05-03T21:53:32.018Z,45.90
2023-05-03T21:55:58.512Z,45.80
2023-05-03T21:58:24.988Z,45.70
2023-05-03T22:00:51.461Z,45.70
2023-05-03T22:03:18.042Z,45.70
2023-05-03T22:05:44.559Z,45.70
2023-05-03T22:08:11.056Z,45.70
2023-05-03T22:10:37.540Z,45.60
2023-05-03T22:13:04.126Z,45.60
2023-05-03T22:15:30.618Z,45.50
2023-05-03T22:17:57.151Z,45.50
2023-05-03T22:20:23.685Z,45.50
2023-05-03T22:22:50.181Z,45.40
2023-05-03T22:25:16.653Z,45.30
2023-05-03T22:27:43.150Z,45.50
2023-05-03T22:30:09.608Z,45.50
2023-05-03T22:32:36.115Z,45.40
2023-05-03T22:35:02.648Z,45.50
2023-05-03T22:37:29.110Z,45.50
2023-05-03T22:39:55.590Z,45.50
2023-05-03T22:42:22.055Z,45.60
2023-05-03T22:44:48.546Z,45.60
2023-05-03T22:47:15.012Z,45.60
2023-05-03T22:49:41.520Z,45.50
2023-05-03T22:52:08.002Z,45.40
2023-05-03T22:54:34.491Z,45.40
2023-05-03T22:57:04.117Z,45.50
2023-05-03T22:59:30.614Z,45.40
2023-05-03T23:01:57.156Z,45.40
2023-05-03T23:04:23.691Z,45.30
2023-05-03T23:06:50.170Z,45.40
2023-05-03T23:09:16.662Z,45.30
2023-05-03T23:11:43.133Z,45.40
2023-05-03T23:14:09.664Z,45.30
2023-05-03T23:16:36.244Z,45.30
2023-05-03T23:19:02.812Z,45.10
2023-05-03T23:21:34.332Z,45.10
2023-05-03T23:24:00.798Z,45.20
2023-05-03T23:26:27.263Z,45.10
2023-05-03T23:28:54.189Z,44.90
2023-05-03T23:31:21.147Z,44.90
2023-05-03T23:33:48.087Z,44.90
2023-05-03T23:36:14.542Z,45.00
2023-05-03T23:38:41.067Z,45.00
2023-05-03T23:41:07.644Z,44.70
2023-05-03T23:43:34.108Z,44.80
2023-05-03T23:46:00.682Z,45.00
2023-05-03T23:48:27.195Z,44.90
2023-05-03T23:50:53.700Z,44.80
2023-05-03T23:53:20.180Z,44.70
2023-05-03T23:55:46.681Z,44.80
2023-05-03T23:58:13.159Z,44.70
